Time;durP1;ratioP1;P1;durP2;ratioP2;P2;SDS_P1;SDS_P2;PMS_P1;PMS_P2;Temp;Humidity;BMP_temperature;BMP_pressure;BME280_temperature;BME280_humidity;BME280_pressure;Samples;Min_cycle;Max_cycle;Signal;HPM_P1;HPM_P2
2021/12/09 00:00:15;;;;;;;26.83;11.63;;;2.00;99.90;;;;;;5056853;28;20028;-76
2021/12/09 00:02:42;;;;;;;20.67;10.80;;;1.90;99.90;;;;;;5055963;28;20104;-76
2021/12/09 00:05:10;;;;;;;21.85;10.68;;;2.00;99.90;;;;;;5056987;28;20455;-76
2021/12/09 00:07:36;;;;;;;21.80;10.43;;;2.00;99.90;;;;;;5056786;28;20029;-76
2021/12/09 00:10:07;;;;;;;23.05;10.73;;;2.00;99.90;;;;;;5056514;28;20017;-76
2021/12/09 00:12:33;;;;;;;34.00;11.48;;;2.00;99.90;;;;;;5056829;28;20039;-76
2021/12/09 00:14:59;;;;;;;22.63;11.38;;;2.10;99.90;;;;;;5056760;28;20033;-76
2021/12/09 00:17:25;;;;;;;29.48;11.27;;;2.00;99.90;;;;;;5056712;28;20079;-76
2021/12/09 00:19:51;;;;;;;25.52;11.02;;;2.00;99.90;;;;;;5056929;28;20052;-76
2021/12/09 00:22:17;;;;;;;25.02;11.32;;;2.00;99.90;;;;;;5056788;28;20376;-76
2021/12/09 00:24:42;;;;;;;24.10;10.85;;;2.00;99.90;;;;;;5056077;28;20025;-76
2021/12/09 00:27:08;;;;;;;39.03;11.65;;;2.00;99.90;;;;;;5056386;28;20510;-76
2021/12/09 00:29:34;;;;;;;36.45;12.70;;;2.00;99.90;;;;;;5056368;28;20029;-76
2021/12/09 00:32:00;;;;;;;24.30;11.50;;;1.90;99.90;;;;;;5056730;28;20032;-76
2021/12/09 00:34:32;;;;;;;41.42;13.25;;;2.00;99.90;;;;;;5056348;28;20028;-76
2021/12/09 00:37:10;;;;;;;;;;;1.90;99.90;;;;;;5056450;28;20025;-76
2021/12/09 00:39:35;;;;;;;36.38;12.75;;;1.90;99.90;;;;;;5056122;28;19948;-76
2021/12/09 00:42:04;;;;;;;32.83;15.70;;;1.90;99.90;;;;;;5056082;28;20485;-76
2021/12/09 00:44:29;;;;;;;28.42;13.00;;;1.90;99.90;;;;;;5055774;28;20634;-76
2021/12/09 00:46:55;;;;;;;29.35;12.95;;;1.90;99.90;;;;;;5055452;28;20049;-76
2021/12/09 00:49:20;;;;;;;28.65;11.20;;;1.80;99.90;;;;;;5056132;28;20017;-76
2021/12/09 00:51:46;;;;;;;24.38;11.88;;;1.70;99.90;;;;;;5054798;28;20040;-76
2021/12/09 00:54:12;;;;;;;28.77;11.20;;;1.90;99.90;;;;;;5056383;28;20025;-76
2021/12/09 00:56:37;;;;;;;28.48;11.27;;;1.80;99.90;;;;;;5055782;28;20032;-76
2021/12/09 00:59:03;;;;;;;27.63;11.75;;;1.80;99.90;;;;;;5053865;28;20025;-76
2021/12/09 01:01:29;;;;;;;25.55;11.35;;;1.70;99.90;;;;;;5055576;28;20028;-76
2021/12/09 01:03:54;;;;;;;32.38;11.80;;;1.70;99.90;;;;;;5055334;28;20017;-76
2021/12/09 01:06:21;;;;;;;32.60;11.20;;;1.70;99.90;;;;;;5055533;28;20144;-76
2021/12/09 01:08:46;;;;;;;39.50;11.77;;;1.70;99.90;;;;;;5071348;28;20025;-76
2021/12/09 01:11:12;;;;;;;23.83;11.35;;;1.80;99.90;;;;;;5075926;28;20030;-76
2021/12/09 01:13:39;;;;;;;34.72;12.95;;;1.70;99.90;;;;;;5075832;28;20414;-76
2021/12/09 01:16:06;;;;;;;21.15;11.50;;;1.60;99.90;;;;;;5075289;28;20134;-76
2021/12/09 01:18:31;;;;;;;29.15;11.50;;;1.60;99.90;;;;;;5075190;28;20033;-76
2021/12/09 01:20:57;;;;;;;25.05;12.32;;;1.60;99.90;;;;;;5075734;28;20028;-76
2021/12/09 01:23:23;;;;;;;32.00;12.30;;;1.60;99.90;;;;;;5075066;28;20450;-76
2021/12/09 01:25:51;;;;;;;23.83;11.45;;;1.60;99.90;;;;;;5075431;28;20103;-76
2021/12/09 01:28:25;;;;;;;22.25;11.73;;;1.60;99.90;;;;;;5075103;28;20483;-76
2021/12/09 01:30:59;;;;;;;24.25;12.30;;;1.50;99.90;;;;;;5075325;28;20525;-76
2021/12/09 01:33:24;;;;;;;30.45;12.52;;;1.50;99.90;;;;;;5075508;28;20025;-76
2021/12/09 01:35:50;;;;;;;27.67;12.50;;;1.40;99.90;;;;;;5075232;28;20107;-76
2021/12/09 01:38:17;;;;;;;28.40;12.63;;;1.40;99.90;;;;;;5073848;28;20052;-76
2021/12/09 01:40:42;;;;;;;29.20;12.48;;;1.40;99.90;;;;;;5064608;28;20112;-76
2021/12/09 01:43:08;;;;;;;32.22;12.18;;;1.40;99.90;;;;;;5054876;28;20064;-76
2021/12/09 01:45:34;;;;;;;26.50;12.80;;;1.40;99.90;;;;;;5054840;28;20025;-76
2021/12/09 01:48:00;;;;;;;26.55;12.68;;;1.40;99.90;;;;;;5053397;28;20056;-76
2021/12/09 01:50:27;;;;;;;33.38;14.18;;;1.40;99.90;;;;;;5054569;28;20040;-76
2021/12/09 01:52:53;;;;;;;33.25;12.95;;;1.50;99.90;;;;;;5054412;28;20021;-75
2021/12/09 01:55:20;;;;;;;27.10;12.00;;;1.40;99.90;;;;;;5052941;28;20036;-76
2021/12/09 01:57:51;;;;;;;30.13;12.95;;;1.30;99.90;;;;;;5053606;28;20105;-76
2021/12/09 02:00:22;;;;;;;33.35;12.68;;;1.30;99.90;;;;;;5053810;28;20075;-76
2021/12/09 02:02:49;;;;;;;27.70;12.50;;;1.30;99.90;;;;;;5052252;28;20020;-76
2021/12/09 02:05:15;;;;;;;27.75;12.45;;;1.30;99.90;;;;;;5053438;28;20025;-76
2021/12/09 02:07:40;;;;;;;31.73;12.90;;;1.40;99.90;;;;;;5053614;28;20382;-76
2021/12/09 02:10:10;;;;;;;33.17;13.10;;;1.30;99.90;;;;;;5053043;28;20068;-76
2021/12/09 02:12:35;;;;;;;29.88;13.68;;;1.30;99.90;;;;;;5053881;28;20067;-76
2021/12/09 02:15:02;;;;;;;31.13;13.25;;;1.40;99.90;;;;;;5053488;28;20418;-76
2021/12/09 02:17:29;;;;;;;27.17;13.88;;;1.30;99.90;;;;;;5053033;28;20096;-76
2021/12/09 02:20:00;;;;;;;35.00;14.32;;;1.20;99.90;;;;;;5052831;28;20134;-76
2021/12/09 02:22:28;;;;;;;33.03;14.18;;;1.20;99.90;;;;;;5053097;28;20017;-76
2021/12/09 02:24:55;;;;;;;30.52;13.77;;;1.20;99.90;;;;;;5053322;28;20025;-76
2021/12/09 02:27:22;;;;;;;31.40;13.77;;;1.20;99.90;;;;;;5053563;28;20083;-76
2021/12/09 02:29:49;;;;;;;32.58;14.13;;;1.30;99.90;;;;;;5051721;28;20032;-76
2021/12/09 02:32:15;;;;;;;33.03;14.85;;;1.30;99.90;;;;;;5053294;28;20021;-76
2021/12/09 02:34:40;;;;;;;30.48;13.15;;;1.30;99.90;;;;;;5052764;28;20036;-76
2021/12/09 02:37:09;;;;;;;27.10;12.43;;;1.30;99.90;;;;;;5053274;28;20096;-76
2021/12/09 02:39:35;;;;;;;29.50;13.13;;;1.20;99.90;;;;;;5052602;28;20021;-76
2021/12/09 02:42:02;;;;;;;35.67;13.75;;;1.20;99.90;;;;;;5051516;28;20025;-76
2021/12/09 02:44:28;;;;;;;33.67;13.23;;;1.20;99.90;;;;;;5053045;28;20021;-76
2021/12/09 02:46:55;;;;;;;31.45;13.50;;;1.20;99.90;;;;;;5052482;28;20064;-76
2021/12/09 02:49:29;;;;;;;32.13;13.70;;;1.20;99.90;;;;;;5051248;28;20021;-76
2021/12/09 02:51:57;;;;;;;28.95;13.07;;;1.10;99.90;;;;;;5052493;28;20537;-76
2021/12/09 02:54:23;;;;;;;31.10;12.60;;;1.10;99.90;;;;;;5053029;28;20037;-76
2021/12/09 02:56:53;;;;;;;41.85;14.73;;;1.10;99.90;;;;;;5052099;28;20025;-76
2021/12/09 02:59:19;;;;;;;32.70;14.85;;;1.10;99.90;;;;;;5051942;28;20048;-76
2021/12/09 03:01:57;;;;;;;28.17;12.52;;;1.10;99.90;;;;;;5053563;28;20350;-76
2021/12/09 03:04:48;;;;;;;29.67;13.45;;;1.10;99.90;;;;;;5053441;28;20021;-76
2021/12/09 03:07:27;;;;;;;34.63;13.45;;;1.00;99.90;;;;;;5056533;28;20035;-76
2021/12/09 03:09:58;;;;;;;33.10;15.07;;;1.00;99.90;;;;;;5073659;28;20024;-76
2021/12/09 03:12:33;;;;;;;31.83;14.27;;;1.10;99.90;;;;;;5073542;28;20028;-76
2021/12/09 03:15:00;;;;;;;35.38;15.07;;;1.00;99.90;;;;;;5073365;28;20043;-76
2021/12/09 03:17:27;;;;;;;30.55;12.63;;;1.00;99.90;;;;;;5071748;28;20429;-76
2021/12/09 03:19:53;;;;;;;29.15;13.95;;;1.10;99.90;;;;;;5073033;28;20036;-76
2021/12/09 03:22:20;;;;;;;33.30;13.35;;;1.20;99.90;;;;;;5072680;28;20462;-76
2021/12/09 03:24:46;;;;;;;32.08;14.48;;;1.10;99.90;;;;;;5072876;28;20028;-76
2021/12/09 03:27:11;;;;;;;40.63;14.48;;;1.10;99.90;;;;;;5071909;28;20373;-76
2021/12/09 03:29:38;;;;;;;40.40;15.18;;;1.00;99.90;;;;;;5073416;28;20024;-76
2021/12/09 03:32:08;;;;;;;30.65;14.43;;;1.10;99.90;;;;;;5072208;28;20177;-76
2021/12/09 03:34:35;;;;;;;31.42;14.27;;;1.00;99.90;;;;;;5073163;28;20032;-76
2021/12/09 03:37:04;;;;;;;33.25;13.75;;;1.00;99.90;;;;;;5073089;28;20028;-76
2021/12/09 03:39:34;;;;;;;34.53;14.45;;;1.00;99.90;;;;;;5073398;28;20086;-76
2021/12/09 03:42:01;;;;;;;39.78;14.57;;;1.00;99.90;;;;;;5071841;28;20032;-76
2021/12/09 03:44:28;;;;;;;33.92;15.50;;;1.00;99.90;;;;;;5073329;28;20028;-76
2021/12/09 03:46:55;;;;;;;42.90;17.25;;;1.00;99.90;;;;;;5072681;28;20045;-76
2021/12/09 03:49:23;;;;;;;43.70;15.93;;;0.90;99.90;;;;;;5072832;28;20105;-76
2021/12/09 03:51:49;;;;;;;31.58;15.50;;;1.00;99.90;;;;;;5072642;28;20025;-76
2021/12/09 03:54:15;;;;;;;38.47;15.18;;;0.90;99.90;;;;;;5072977;28;20454;-76
2021/12/09 03:56:41;;;;;;;40.10;15.80;;;0.80;99.90;;;;;;5073060;28;20082;-76
2021/12/09 03:59:09;;;;;;;34.63;16.48;;;0.80;99.90;;;;;;5072806;28;20029;-76
2021/12/09 04:01:37;;;;;;;35.17;15.32;;;0.90;99.90;;;;;;5072835;28;20043;-76
2021/12/09 04:04:03;;;;;;;40.33;15.68;;;0.90;99.90;;;;;;5071536;28;20031;-76
2021/12/09 04:06:29;;;;;;;62.28;19.10;;;0.80;99.90;;;;;;5072689;28;20394;-76
2021/12/09 04:08:56;;;;;;;45.00;16.83;;;0.90;99.90;;;;;;5055464;28;20107;-76
2021/12/09 04:11:22;;;;;;;39.33;14.88;;;0.90;99.90;;;;;;5052758;28;20053;-76
2021/12/09 04:13:47;;;;;;;43.78;15.02;;;0.90;99.90;;;;;;5053215;28;20056;-76
2021/12/09 04:16:13;;;;;;;45.88;17.00;;;0.90;99.90;;;;;;5052433;28;20518;-76
2021/12/09 04:18:41;;;;;;;31.73;15.38;;;0.90;99.90;;;;;;5052426;28;20033;-76
2021/12/09 04:21:07;;;;;;;36.00;14.73;;;0.90;99.90;;;;;;5052373;28;20029;-76
2021/12/09 04:23:34;;;;;;;36.15;15.20;;;1.00;99.90;;;;;;5052470;28;20021;-76
2021/12/09 04:26:00;;;;;;;30.13;14.93;;;0.90;99.90;;;;;;5052294;28;20407;-76
2021/12/09 04:28:26;;;;;;;38.92;15.05;;;1.00;99.90;;;;;;5052624;28;20054;-76
2021/12/09 04:30:52;;;;;;;37.28;15.85;;;1.00;99.90;;;;;;5050984;28;20017;-76
2021/12/09 04:33:18;;;;;;;36.90;14.25;;;0.90;99.90;;;;;;5053898;28;20025;-76
2021/12/09 04:35:43;;;;;;;37.97;14.82;;;0.90;99.90;;;;;;5056387;28;20079;-76
2021/12/09 04:38:10;;;;;;;34.33;14.30;;;0.90;99.90;;;;;;5056237;28;20031;-76
2021/12/09 04:40:36;;;;;;;45.63;15.68;;;0.90;99.90;;;;;;5055777;28;20059;-76
2021/12/09 04:43:03;;;;;;;53.40;16.55;;;0.90;99.90;;;;;;5056120;28;20048;-76
2021/12/09 04:45:30;;;;;;;37.28;14.25;;;1.00;99.90;;;;;;5055006;28;20024;-76
2021/12/09 04:47:57;;;;;;;44.65;15.25;;;0.90;99.90;;;;;;5055863;28;20045;-76
2021/12/09 04:50:24;;;;;;;41.65;13.88;;;0.90;99.90;;;;;;5055703;28;20047;-76
2021/12/09 04:52:50;;;;;;;42.45;14.65;;;0.80;99.90;;;;;;5056027;28;20025;-76
2021/12/09 04:55:15;;;;;;;40.47;15.45;;;0.80;99.90;;;;;;5056092;28;20411;-76
2021/12/09 04:57:42;;;;;;;33.40;14.88;;;0.80;99.90;;;;;;5055727;28;20033;-76
2021/12/09 05:00:11;;;;;;;39.97;15.13;;;0.70;99.90;;;;;;5055765;28;20028;-76
2021/12/09 05:03:02;;;;;;;33.28;13.63;;;0.70;99.90;;;;;;5055605;28;20017;-76
2021/12/09 05:05:23;;;;;;;50.10;14.35;;;0.70;99.90;;;;;;5055257;28;20451;-76
2021/12/09 05:07:48;;;;;;;34.00;14.90;;;0.70;99.90;;;;;;5063624;28;20057;-76
2021/12/09 05:10:15;;;;;;;37.33;13.90;;;0.60;99.90;;;;;;5075569;28;20108;-76
2021/12/09 05:12:40;;;;;;;33.25;13.80;;;0.60;99.90;;;;;;5074014;28;20025;-76
2021/12/09 05:15:07;;;;;;;47.55;14.15;;;0.60;99.90;;;;;;5075632;28;20074;-76
2021/12/09 05:17:33;;;;;;;32.15;13.27;;;0.60;99.90;;;;;;5074336;28;20024;-76
2021/12/09 05:19:58;;;;;;;43.55;14.15;;;0.60;99.90;;;;;;5068449;28;20405;-76
2021/12/09 05:22:24;;;;;;;33.33;12.90;;;0.70;99.90;;;;;;5055159;28;20096;-76
2021/12/09 05:24:51;;;;;;;40.22;13.15;;;0.60;99.90;;;;;;5055010;28;20039;-76
2021/12/09 05:27:18;;;;;;;39.83;13.60;;;0.60;99.90;;;;;;5055069;28;20064;-76
2021/12/09 05:29:46;;;;;;;33.47;13.30;;;0.70;99.90;;;;;;5055221;28;20017;-76
2021/12/09 05:32:13;;;;;;;31.45;13.82;;;0.70;99.90;;;;;;5055640;28;20065;-76
2021/12/09 05:34:44;;;;;;;42.00;14.15;;;0.70;99.90;;;;;;5055208;28;20043;-76
2021/12/09 05:37:13;;;;;;;33.72;12.25;;;0.60;99.90;;;;;;5053795;28;20039;-76
2021/12/09 05:39:39;;;;;;;39.88;12.93;;;0.60;99.90;;;;;;5055407;28;20045;-76
2021/12/09 05:42:07;;;;;;;36.28;13.18;;;0.60;99.90;;;;;;5055223;28;20459;-76
2021/12/09 05:44:34;;;;;;;26.45;12.70;;;0.60;99.90;;;;;;5054109;28;20041;-76
2021/12/09 05:47:02;;;;;;;29.98;13.80;;;0.70;99.90;;;;;;5054592;28;20037;-76
2021/12/09 05:49:28;;;;;;;30.52;13.30;;;0.70;99.90;;;;;;5053213;28;20039;-76
2021/12/09 05:51:54;;;;;;;39.92;13.27;;;0.70;99.90;;;;;;5054725;28;20100;-76
2021/12/09 05:54:20;;;;;;;30.98;12.20;;;0.60;99.90;;;;;;5054252;28;20454;-76
2021/12/09 05:56:46;;;;;;;35.97;12.57;;;0.70;99.90;;;;;;5054849;28;20036;-76
2021/12/09 05:59:12;;;;;;;42.05;12.45;;;0.70;99.90;;;;;;5054855;28;20097;-76
2021/12/09 06:01:39;;;;;;;35.42;13.00;;;0.60;99.90;;;;;;5054879;28;20175;-76
2021/12/09 06:04:05;;;;;;;36.83;14.52;;;0.60;99.90;;;;;;5054685;28;20021;-76
2021/12/09 06:06:32;;;;;;;34.58;13.30;;;0.60;99.90;;;;;;5053958;28;20049;-76
2021/12/09 06:08:57;;;;;;;31.15;12.40;;;0.60;99.90;;;;;;5072030;28;20111;-76
2021/12/09 06:11:23;;;;;;;32.75;13.00;;;0.70;99.90;;;;;;5074308;28;20105;-76
2021/12/09 06:13:49;;;;;;;36.05;12.40;;;0.70;99.90;;;;;;5072734;28;20042;-76
2021/12/09 06:16:16;;;;;;;31.23;12.20;;;0.80;99.90;;;;;;5074047;28;20028;-76
2021/12/09 06:18:42;;;;;;;34.08;12.23;;;0.90;99.90;;;;;;5073917;28;20107;-76
2021/12/09 06:21:08;;;;;;;34.78;12.23;;;0.80;99.90;;;;;;5057534;28;20076;-76
2021/12/09 06:23:33;;;;;;;27.08;9.98;;;0.90;99.90;;;;;;5054288;28;20048;-76
2021/12/09 06:25:59;;;;;;;31.52;10.98;;;1.00;99.90;;;;;;5053645;28;20353;-76
2021/12/09 06:28:25;;;;;;;31.70;11.15;;;1.00;99.90;;;;;;5053946;28;20109;-76
2021/12/09 06:30:51;;;;;;;27.05;11.27;;;1.10;99.90;;;;;;5052822;28;20459;-76
2021/12/09 06:33:16;;;;;;;34.95;11.60;;;1.10;99.90;;;;;;5052641;28;20386;-76
2021/12/09 06:35:42;;;;;;;23.52;10.30;;;1.10;99.90;;;;;;5053781;28;20029;-76
2021/12/09 06:38:11;;;;;;;29.48;11.30;;;1.10;99.90;;;;;;5053503;28;20054;-76
2021/12/09 06:40:37;;;;;;;38.08;11.27;;;1.00;99.90;;;;;;5053886;28;20024;-76
2021/12/09 06:43:03;;;;;;;30.67;11.32;;;0.90;99.90;;;;;;5053878;28;20364;-76
2021/12/09 06:45:29;;;;;;;30.05;11.75;;;0.90;99.90;;;;;;5053375;28;20036;-76
2021/12/09 06:47:54;;;;;;;23.73;9.95;;;1.00;99.90;;;;;;5053601;28;20052;-76
2021/12/09 06:50:21;;;;;;;26.00;10.32;;;1.00;99.90;;;;;;5053684;28;20024;-76
2021/12/09 06:52:47;;;;;;;25.13;10.07;;;1.00;99.90;;;;;;5053338;28;20152;-76
2021/12/09 06:55:15;;;;;;;31.00;10.65;;;0.90;99.90;;;;;;5053663;28;20479;-76
2021/12/09 06:57:45;;;;;;;30.38;9.80;;;0.90;99.90;;;;;;5053653;28;20021;-76
2021/12/09 07:00:17;;;;;;;26.10;9.88;;;0.90;99.90;;;;;;5053452;28;20024;-76
2021/12/09 07:02:44;;;;;;;25.55;9.85;;;0.90;99.90;;;;;;5052135;28;20044;-76
2021/12/09 07:05:11;;;;;;;30.50;9.85;;;1.00;99.90;;;;;;5052185;28;20029;-76
2021/12/09 07:07:38;;;;;;;25.65;9.18;;;1.00;99.90;;;;;;5059841;28;20469;-76
2021/12/09 07:10:06;;;;;;;28.25;9.75;;;1.10;99.90;;;;;;5073491;28;20028;-76
2021/12/09 07:12:34;;;;;;;24.20;9.65;;;1.00;99.90;;;;;;5073002;28;20074;-76
2021/12/09 07:15:01;;;;;;;23.23;8.95;;;1.00;99.90;;;;;;5073449;28;20028;-76
2021/12/09 07:17:26;;;;;;;27.63;9.23;;;0.90;99.90;;;;;;5073342;28;20519;-76
2021/12/09 07:19:52;;;;;;;23.08;8.60;;;1.00;99.90;;;;;;5073430;28;20116;-76
2021/12/09 07:22:18;;;;;;;29.25;9.65;;;0.90;99.90;;;;;;5073536;28;20115;-76
2021/12/09 07:24:43;;;;;;;27.67;9.55;;;0.90;99.90;;;;;;5071835;28;20417;-76
2021/12/09 07:27:09;;;;;;;29.25;9.45;;;1.00;99.90;;;;;;5073141;28;20067;-76
2021/12/09 07:29:35;;;;;;;25.40;9.10;;;1.10;99.90;;;;;;5071629;28;20021;-76
2021/12/09 07:32:00;;;;;;;29.83;9.75;;;1.10;99.90;;;;;;5073127;28;20074;-76
2021/12/09 07:34:26;;;;;;;31.92;9.60;;;1.10;99.90;;;;;;5073271;28;20056;-76
2021/12/09 07:36:52;;;;;;;29.60;8.23;;;1.10;99.90;;;;;;5073027;28;20532;-76
2021/12/09 07:39:17;;;;;;;25.63;8.60;;;1.20;99.90;;;;;;5073054;28;20036;-76
2021/12/09 07:41:43;;;;;;;24.83;8.52;;;1.20;99.90;;;;;;5055246;28;20029;-76
2021/12/09 07:44:10;;;;;;;26.65;8.55;;;1.30;99.90;;;;;;5052938;28;20348;-76
2021/12/09 07:46:36;;;;;;;34.85;9.88;;;1.30;99.90;;;;;;5052913;28;20091;-76
2021/12/09 07:49:02;;;;;;;24.65;8.10;;;1.30;99.90;;;;;;5052995;28;20415;-76
2021/12/09 07:51:28;;;;;;;25.83;8.05;;;1.30;99.90;;;;;;5052911;28;20021;-76
2021/12/09 07:53:53;;;;;;;23.65;8.77;;;1.30;99.90;;;;;;5052380;28;20036;-76
2021/12/09 07:56:19;;;;;;;27.50;8.80;;;1.20;99.90;;;;;;5051382;28;20029;-76
2021/12/09 07:58:45;;;;;;;23.38;7.85;;;1.20;99.90;;;;;;5052754;28;20029;-76
2021/12/09 08:01:11;;;;;;;30.63;9.25;;;1.30;99.90;;;;;;5052641;28;20425;-74
2021/12/09 08:03:38;;;;;;;26.75;8.35;;;1.30;99.90;;;;;;5052498;28;20475;-76
2021/12/09 08:06:03;;;;;;;19.20;8.30;;;1.30;99.90;;;;;;5051184;28;20087;-76
2021/12/09 08:08:29;;;;;;;34.53;8.98;;;1.30;99.90;;;;;;5059677;28;20029;-76
2021/12/09 08:10:55;;;;;;;27.85;9.52;;;1.40;99.90;;;;;;5055491;28;20025;-76
2021/12/09 08:13:22;;;;;;;22.45;8.00;;;1.40;99.90;;;;;;5056374;28;20052;-76
2021/12/09 08:15:50;;;;;;;19.50;8.05;;;1.40;99.90;;;;;;5056398;28;20475;-76
2021/12/09 08:20:46;;;;;;;23.98;8.70;;;1.50;99.90;;;;;;5052957;28;20128;-76
2021/12/09 08:23:11;;;;;;;23.45;8.57;;;1.50;99.90;;;;;;5054849;28;20068;-76
2021/12/09 08:25:37;;;;;;;24.15;7.63;;;1.50;99.90;;;;;;5056316;28;20104;-77
2021/12/09 08:28:03;;;;;;;24.77;9.13;;;1.60;99.90;;;;;;5055982;28;20029;-76
2021/12/09 08:30:29;;;;;;;22.50;8.27;;;1.60;99.90;;;;;;5048554;28;20028;-76
2021/12/09 08:32:55;;;;;;;23.38;9.18;;;1.70;99.90;;;;;;5047636;28;20032;-76
2021/12/09 08:35:21;;;;;;;16.92;7.40;;;1.80;99.90;;;;;;5044935;28;20024;-76
2021/12/09 08:37:48;;;;;;;26.33;8.30;;;1.90;99.90;;;;;;5054775;28;20024;-76
2021/12/09 08:40:15;;;;;;;27.90;8.70;;;2.00;99.90;;;;;;5048005;28;20351;-76
2021/12/09 08:42:42;;;;;;;26.92;8.55;;;2.00;99.90;;;;;;5044949;28;20463;-76
2021/12/09 08:45:10;;;;;;;24.63;7.72;;;2.10;99.90;;;;;;5047579;28;20017;-76
2021/12/09 08:47:38;;;;;;;22.95;8.80;;;2.20;99.90;;;;;;5046908;28;20163;-76
2021/12/09 08:50:06;;;;;;;26.27;8.60;;;2.20;99.90;;;;;;5044460;28;20471;-76
2021/12/09 08:52:31;;;;;;;21.80;8.77;;;2.30;99.90;;;;;;5052306;28;20041;-76
2021/12/09 08:54:57;;;;;;;27.98;7.72;;;2.30;99.90;;;;;;5061700;28;20020;-76
2021/12/09 08:57:23;;;;;;;24.10;8.35;;;2.40;99.90;;;;;;5049980;28;20516;-76
2021/12/09 08:59:49;;;;;;;28.88;7.50;;;2.40;99.90;;;;;;5055634;28;20104;-76
2021/12/09 09:02:15;;;;;;;23.38;7.82;;;2.60;99.90;;;;;;5054503;28;20025;-76
2021/12/09 09:04:41;;;;;;;21.95;8.25;;;2.60;99.90;;;;;;5055443;28;20485;-76
2021/12/09 09:07:08;;;;;;;21.05;8.43;;;2.60;99.90;;;;;;5057450;28;20051;-77
2021/12/09 09:09:36;;;;;;;22.30;7.95;;;2.70;99.90;;;;;;5074116;28;20111;-76
2021/12/09 09:12:05;;;;;;;23.90;7.47;;;2.80;99.90;;;;;;5073637;28;20020;-77
2021/12/09 09:14:30;;;;;;;24.92;8.00;;;2.80;99.90;;;;;;5074981;28;20024;-76
2021/12/09 09:16:56;;;;;;;19.30;8.13;;;2.90;99.90;;;;;;5073918;28;20115;-76
2021/12/09 09:19:22;;;;;;;26.70;8.38;;;2.90;99.90;;;;;;5071849;28;20028;-77
2021/12/09 09:21:48;;;;;;;25.45;8.40;;;3.00;99.90;;;;;;5054013;28;20021;-76
2021/12/09 09:24:13;;;;;;;21.40;8.65;;;3.00;99.90;;;;;;5054661;28;20024;-77
2021/12/09 09:26:39;;;;;;;18.38;7.57;;;3.00;99.90;;;;;;5053704;28;21723;-77
2021/12/09 09:29:05;;;;;;;16.73;8.10;;;3.10;99.90;;;;;;5054195;28;20025;-77
2021/12/09 09:31:32;;;;;;;19.40;8.60;;;3.10;99.90;;;;;;5055239;28;20080;-77
2021/12/09 09:34:02;;;;;;;26.58;7.43;;;3.10;99.90;;;;;;5055529;28;20028;-77
2021/12/09 09:36:31;;;;;;;20.92;8.57;;;3.10;99.90;;;;;;5047238;28;20025;-77
2021/12/09 09:39:11;;;;;;;28.45;7.88;;;3.20;99.90;;;;;;5054873;28;20017;-77
2021/12/09 09:41:37;;;;;;;23.20;8.13;;;3.20;99.90;;;;;;5039897;28;20121;-77
2021/12/09 09:44:13;;;;;;;24.08;8.40;;;3.30;99.90;;;;;;5054792;28;20103;-77
2021/12/09 09:46:39;;;;;;;13.65;8.35;;;3.40;99.90;;;;;;5054521;28;20037;-77
2021/12/09 09:49:06;;;;;;;19.60;9.07;;;3.50;99.90;;;;;;5050854;28;20056;-77
2021/12/09 09:51:33;;;;;;;18.85;7.18;;;3.50;99.90;;;;;;5054617;28;20021;-77
2021/12/09 09:53:59;;;;;;;27.23;8.27;;;3.60;99.90;;;;;;5054254;28;20032;-77
2021/12/09 09:56:26;;;;;;;23.98;8.45;;;3.70;99.90;;;;;;5054729;28;20025;-77
2021/12/09 09:59:01;;;;;;;18.10;8.07;;;3.70;99.90;;;;;;5052891;28;20028;-77
2021/12/09 10:01:30;;;;;;;17.05;7.15;;;3.60;99.90;;;;;;5052540;28;20403;-77
2021/12/09 10:04:10;;;;;;;15.82;7.55;;;3.50;99.90;;;;;;5054114;28;20021;-77
2021/12/09 10:06:37;;;;;;;22.38;7.13;;;3.50;99.90;;;;;;5053423;28;20029;-77
2021/12/09 10:09:06;;;;;;;20.55;7.60;;;3.50;99.90;;;;;;5053267;28;20459;-76
2021/12/09 10:11:32;;;;;;;21.20;7.60;;;3.60;99.90;;;;;;5053818;28;20036;-77
2021/12/09 10:14:19;;;;;;;17.80;6.72;;;3.70;99.90;;;;;;5054113;28;20021;-76
2021/12/09 10:16:59;;;;;;;15.23;6.95;;;3.70;99.90;;;;;;5053814;28;20033;-76
2021/12/09 10:19:24;;;;;;;19.15;6.57;;;3.80;99.90;;;;;;5042883;28;20029;-76
2021/12/09 10:22:26;;;;;;;23.48;7.32;;;4.00;99.90;;;;;;5035150;28;20041;-76
2021/12/09 10:24:54;;;;;;;15.25;7.03;;;4.00;99.90;;;;;;5042652;28;20149;-78
2021/12/09 10:27:28;;;;;;;13.85;6.20;;;4.00;99.90;;;;;;5053368;28;20040;-78
2021/12/09 10:30:02;;;;;;;19.27;6.80;;;4.10;99.90;;;;;;5048508;28;20383;-77
2021/12/09 10:32:32;;;;;;;17.77;6.82;;;4.10;99.90;;;;;;5037326;28;20049;-77
2021/12/09 10:35:10;;;;;;;24.52;8.10;;;4.10;99.90;;;;;;5049318;28;20052;-77
2021/12/09 10:37:38;;;;;;;17.90;7.28;;;4.10;99.90;;;;;;5053794;28;20382;-77
2021/12/09 10:40:11;;;;;;;17.73;7.18;;;4.10;99.90;;;;;;5053021;28;20032;-76
2021/12/09 10:42:36;;;;;;;;;;;4.10;99.90;;;;;;5054005;28;20128;-80
2021/12/09 10:45:14;;;;;;;17.85;7.20;;;4.20;99.90;;;;;;5053588;28;20262;-79
2021/12/09 10:48:00;;;;;;;20.77;7.88;;;4.20;99.90;;;;;;5053180;28;20057;-80
2021/12/09 10:50:39;;;;;;;19.65;7.65;;;4.40;99.90;;;;;;5038877;28;20475;-80
2021/12/09 10:55:47;;;;;;;24.95;8.95;;;4.20;99.90;;;;;;5051827;28;20029;-82
2021/12/09 10:58:16;;;;;;;26.65;9.93;;;4.20;99.90;;;;;;5051986;28;20025;-81
2021/12/09 11:00:56;;;;;;;28.48;9.95;;;4.30;99.90;;;;;;5053292;28;20036;-81
2021/12/09 11:03:49;;;;;;;21.38;8.90;;;4.20;99.90;;;;;;5053116;28;20029;-80
2021/12/09 11:06:19;;;;;;;25.70;9.52;;;4.30;99.90;;;;;;5053043;28;20027;-81
2021/12/09 11:08:50;;;;;;;25.80;9.85;;;4.20;99.90;;;;;;5053378;28;20029;-80
2021/12/09 11:11:29;;;;;;;27.60;10.38;;;4.20;99.90;;;;;;5052616;28;20021;-79
2021/12/09 11:13:57;;;;;;;25.92;10.57;;;4.20;99.90;;;;;;5051677;28;20409;-79
2021/12/09 11:16:30;;;;;;;27.35;10.82;;;4.30;99.90;;;;;;5052258;28;20048;-80
2021/12/09 11:19:05;;;;;;;21.98;9.50;;;4.30;99.90;;;;;;5050518;28;20114;-80
2021/12/09 11:21:36;;;;;;;26.98;10.40;;;4.30;99.90;;;;;;5051593;28;20024;-81
2021/12/09 11:24:10;;;;;;;21.27;10.32;;;4.30;99.90;;;;;;5051327;28;20159;-80
2021/12/09 11:26:59;;;;;;;30.25;10.57;;;4.40;99.90;;;;;;5051689;28;20039;-80
2021/12/09 11:29:27;;;;;;;26.40;10.30;;;4.40;99.90;;;;;;5049782;28;20032;-80
2021/12/09 11:32:10;;;;;;;33.33;11.68;;;4.50;99.90;;;;;;5050958;28;20021;-80
2021/12/09 11:34:50;;;;;;;20.80;10.82;;;4.50;99.90;;;;;;5051048;28;20024;-79
2021/12/09 11:39:58;;;;;;;26.05;10.95;;;4.50;99.90;;;;;;5049201;28;20017;-75
2021/12/09 11:42:32;;;;;;;25.95;11.25;;;4.60;99.90;;;;;;5050186;28;20021;-74
2021/12/09 11:44:58;;;;;;;23.60;10.73;;;4.70;99.90;;;;;;5050174;28;20024;-73
2021/12/09 11:47:23;;;;;;;22.35;10.23;;;4.70;99.90;;;;;;5050555;28;20029;-73
2021/12/09 11:49:51;;;;;;;24.58;10.13;;;4.70;99.90;;;;;;5050159;28;20467;-73
2021/12/09 11:52:18;;;;;;;21.88;9.82;;;4.70;99.90;;;;;;5050862;28;20475;-73
2021/12/09 11:54:51;;;;;;;20.70;9.75;;;4.80;99.90;;;;;;5049327;28;20059;-73
2021/12/09 12:07:08;;;;;;;24.67;10.48;;;4.90;99.90;;;;;;5055430;28;20074;-76
2021/12/09 12:12:33;;;;;;;17.17;9.13;;;4.90;99.90;;;;;;5059348;28;20458;-76
2021/12/09 12:15:26;;;;;;;19.13;9.90;;;4.90;99.90;;;;;;5063034;28;20056;-77
2021/12/09 12:21:12;;;;;;;21.92;10.30;;;4.90;99.90;;;;;;5042186;28;20106;-75
2021/12/09 12:37:56;;;;;;;23.80;9.55;;;5.00;99.90;;;;;;5031293;28;20036;-76
2021/12/09 12:40:24;;;;;;;22.00;8.38;;;5.10;99.90;;;;;;5039929;28;20096;-76
2021/12/09 12:43:01;;;;;;;21.35;9.20;;;5.10;99.90;;;;;;5050668;28;20459;-76
2021/12/09 12:45:55;;;;;;;17.80;9.02;;;5.00;99.90;;;;;;5050623;28;20032;-76
2021/12/09 12:51:24;;;;;;;18.02;9.30;;;5.10;99.90;;;;;;5031241;28;20034;-76
2021/12/09 12:53:57;;;;;;;25.25;10.27;;;5.00;99.90;;;;;;5031773;28;20014;-76
2021/12/09 12:56:27;;;;;;;25.48;9.23;;;5.10;99.90;;;;;;5072401;28;20427;-76
2021/12/09 12:59:13;;;;;;;18.70;9.82;;;5.20;99.90;;;;;;5074635;28;20492;-76
2021/12/09 13:01:46;;;;;;;16.27;9.27;;;5.20;99.90;;;;;;5074784;28;20055;-76
2021/12/09 13:04:41;;;;;;;19.77;9.77;;;5.10;99.90;;;;;;5074361;28;20024;-76
2021/12/09 13:08:22;;;;;;;23.08;10.38;;;5.20;99.90;;;;;;5073253;28;20025;-76
2021/12/09 13:19:21;;;;;;;19.45;10.30;;;5.30;99.90;;;;;;5034651;28;20033;-78
2021/12/09 13:22:00;;;;;;;30.20;10.05;;;5.30;99.90;;;;;;5038536;28;20025;-78
2021/12/09 13:24:37;;;;;;;19.95;10.45;;;5.30;99.90;;;;;;5058655;28;20482;-78
2021/12/09 13:33:37;;;;;;;19.88;10.55;;;5.20;99.90;;;;;;5045359;28;20459;-78
2021/12/09 13:35:39;;;;;;;20.55;11.00;;;5.30;99.90;;;;;;5049267;28;20072;-78
2021/12/09 13:38:32;;;;;;;23.13;10.98;;;5.20;99.90;;;;;;5073905;28;20017;-78
2021/12/09 13:49:20;;;;;;;20.98;12.05;;;5.30;99.90;;;;;;5069050;28;20048;-78
2021/12/09 13:54:26;;;;;;;21.48;13.23;;;5.30;99.90;;;;;;5060262;28;20025;-78